Date,TemperatureHighF,TemperatureAvgF,TemperatureLowF,DewpointHighF,DewpointAvgF,DewpointLowF,HumidityHigh,HumidityAvg,HumidityLow,PressureMaxIn,PressureMinIn,WindSpeedMaxMPH,WindSpeedAvgMPH,GustSpeedMaxMPH,PrecipitationSumIn
2013-12-1,49.6,38.3,28.4,34.6,30.4,24.9,90,74,54,30.40,30.02,2,0,7,0.36
2013-12-2,47.7,38.9,31.0,35.7,32.4,28.7,92,78,58,30.02,29.90,2,0,5,0.03
2013-12-3,54.2,38.1,29.7,39.0,32.5,27.8,95,82,51,30.02,29.88,2,0,7,0.01
2013-12-4,49.9,41.5,32.1,43.5,37.3,30.0,94,86,71,30.13,30.02,2,0,5,0.00
2013-12-5,56.4,49.4,44.7,55.2,47.8,41.4,97,94,83,30.12,29.93,1,0,4,0.05
2013-12-6,59.6,47.5,37.8,58.6,45.5,36.1,97,93,89,30.16,29.86,5,1,18,0.29
2013-12-7,40.0,35.7,30.1,36.2,28.5,17.9,94,76,55,30.53,30.09,5,1,18,0.25
2013-12-8,32.1,28.9,26.2,27.8,20.8,16.9,93,72,59,30.60,30.38,4,1,10,0.00
2013-12-9,34.9,32.2,29.6,33.5,30.6,27.8,95,94,93,30.38,30.00,3,1,9,0.00
2013-12-10,33.7,30.3,24.4,32.2,28.0,19.6,95,91,82,30.15,29.89,2,0,9,0.00
2013-12-11,32.0,25.3,22.0,19.9,18.5,16.7,85,76,54,30.34,30.15,3,1,16,0.01
2013-12-12,27.9,23.4,19.2,17.9,9.3,6.2,88,55,43,30.38,30.19,5,2,14,0.00
2013-12-13,34.3,25.1,14.1,22.0,15.0,7.8,85,66,50,30.34,30.16,5,1,15,0.00
2013-12-14,27.9,24.1,19.7,25.9,20.3,17.5,94,86,72,30.50,29.81,6,3,13,0.00
2013-12-15,36.6,32.6,27.6,34.2,29.0,22.2,95,87,70,29.86,29.55,5,1,16,0.35
2013-12-16,31.0,25.6,16.1,23.7,14.5,10.4,86,63,46,30.25,29.84,6,2,16,0.00
2013-12-17,27.1,22.4,17.6,25.3,19.3,13.5,93,88,78,30.24,29.95,3,0,8,0.00
2013-12-18,36.7,26.1,14.5,25.2,20.1,12.4,94,79,58,30.19,29.95,6,1,16,0.17
2013-12-19,42.9,29.3,16.6,29.8,23.6,14.4,92,80,55,30.20,30.04,5,0,13,0.26
2013-12-20,49.4,38.2,27.2,35.4,31.4,25.2,93,78,54,30.12,29.98,4,0,11,0.28
2013-12-21,60.2,46.2,34.6,53.6,42.2,32.6,96,87,70,30.01,29.90,5,1,10,0.02
2013-12-22,68.0,63.6,54.0,62.9,58.6,50.9,95,84,75,29.95,29.80,5,2,16,0.01
2013-12-23,60.0,52.8,39.9,57.6,50.2,31.5,96,91,72,30.16,29.89,6,1,16,0.38
2013-12-24,39.8,34.5,25.5,31.7,22.8,9.9,78,62,49,30.37,30.10,6,3,19,0.09
2013-12-25,28.2,24.0,18.1,16.1,10.3,7.7,66,56,46,30.55,30.37,7,2,19,0.00
2013-12-26,35.2,28.8,24.1,28.0,22.7,15.7,89,78,63,30.44,30.18,4,1,10,0.00
2013-12-27,40.6,30.5,23.3,24.4,22.6,20.3,89,74,50,30.38,30.27,4,1,11,0.00
2013-12-28,54.6,37.4,23.4,30.0,26.3,21.1,92,68,37,30.30,30.08,5,1,15,0.00
2013-12-29,43.5,39.1,34.1,40.3,34.8,28.6,95,85,59,30.08,29.45,5,1,13,0.64
2013-12-30,43.0,34.2,22.2,38.1,26.8,11.2,94,75,57,30.21,29.70,5,2,14,0.31
2013-12-31,30.3,25.0,19.5,25.1,14.9,9.4,84,66,51,30.31,30.08,5,2,16,0.00